sensor_id;sensor_type;location;lat;lon;timestamp;P1;durP1;ratioP1;P2;durP2;ratioP2
74707;SDS011;63360;50.104;8.074;2023-02-01T00:00:54;8.43;;;3.90;;
74707;SDS011;63360;50.104;8.074;2023-02-01T00:03:21;9.05;;;3.58;;
74707;SDS011;63360;50.104;8.074;2023-02-01T00:05:57;8.20;;;3.50;;
74707;SDS011;63360;50.104;8.074;2023-02-01T00:08:24;8.63;;;3.60;;
74707;SDS011;63360;50.104;8.074;2023-02-01T00:11:00;9.27;;;3.90;;
74707;SDS011;63360;50.104;8.074;2023-02-01T00:13:29;7.83;;;3.50;;
74707;SDS011;63360;50.104;8.074;2023-02-01T00:18:55;8.50;;;3.95;;
74707;SDS011;63360;50.104;8.074;2023-02-01T00:21:30;8.73;;;3.67;;
74707;SDS011;63360;50.104;8.074;2023-02-01T00:23:57;8.32;;;3.92;;
74707;SDS011;63360;50.104;8.074;2023-02-01T00:26:31;8.10;;;3.73;;
74707;SDS011;63360;50.104;8.074;2023-02-01T00:28:59;8.50;;;3.80;;
74707;SDS011;63360;50.104;8.074;2023-02-01T00:31:27;9.85;;;3.85;;
74707;SDS011;63360;50.104;8.074;2023-02-01T00:33:54;8.07;;;3.58;;
74707;SDS011;63360;50.104;8.074;2023-02-01T00:36:21;8.55;;;3.40;;
74707;SDS011;63360;50.104;8.074;2023-02-01T00:38:48;7.30;;;3.30;;
74707;SDS011;63360;50.104;8.074;2023-02-01T00:41:16;7.88;;;3.25;;
74707;SDS011;63360;50.104;8.074;2023-02-01T00:43:44;8.18;;;3.67;;
74707;SDS011;63360;50.104;8.074;2023-02-01T00:46:12;9.25;;;4.03;;
74707;SDS011;63360;50.104;8.074;2023-02-01T00:48:40;8.75;;;4.00;;
74707;SDS011;63360;50.104;8.074;2023-02-01T00:51:11;10.50;;;4.10;;
74707;SDS011;63360;50.104;8.074;2023-02-01T00:53:40;12.32;;;4.15;;
74707;SDS011;63360;50.104;8.074;2023-02-01T00:56:07;9.15;;;4.20;;
74707;SDS011;63360;50.104;8.074;2023-02-01T00:58:34;11.13;;;4.50;;
74707;SDS011;63360;50.104;8.074;2023-02-01T01:03:34;9.77;;;4.43;;
74707;SDS011;63360;50.104;8.074;2023-02-01T01:06:04;11.70;;;4.63;;
74707;SDS011;63360;50.104;8.074;2023-02-01T01:08:33;8.98;;;4.38;;
74707;SDS011;63360;50.104;8.074;2023-02-01T01:11:06;11.63;;;5.55;;
74707;SDS011;63360;50.104;8.074;2023-02-01T01:13:45;10.32;;;4.40;;
74707;SDS011;63360;50.104;8.074;2023-02-01T01:16:13;11.00;;;4.87;;
74707;SDS011;63360;50.104;8.074;2023-02-01T01:18:41;11.65;;;5.50;;
74707;SDS011;63360;50.104;8.074;2023-02-01T01:21:08;10.63;;;4.85;;
74707;SDS011;63360;50.104;8.074;2023-02-01T01:23:35;10.02;;;4.68;;
74707;SDS011;63360;50.104;8.074;2023-02-01T01:26:06;9.77;;;4.70;;
74707;SDS011;63360;50.104;8.074;2023-02-01T01:28:34;9.40;;;4.43;;
74707;SDS011;63360;50.104;8.074;2023-02-01T01:31:01;9.98;;;4.50;;
74707;SDS011;63360;50.104;8.074;2023-02-01T01:33:28;9.98;;;4.53;;
74707;SDS011;63360;50.104;8.074;2023-02-01T01:35:55;10.80;;;4.55;;
74707;SDS011;63360;50.104;8.074;2023-02-01T01:38:21;10.15;;;4.65;;
74707;SDS011;63360;50.104;8.074;2023-02-01T01:40:48;9.37;;;4.33;;
74707;SDS011;63360;50.104;8.074;2023-02-01T01:43:17;9.65;;;3.97;;
74707;SDS011;63360;50.104;8.074;2023-02-01T01:45:45;11.13;;;4.63;;
74707;SDS011;63360;50.104;8.074;2023-02-01T01:48:25;8.90;;;3.92;;
74707;SDS011;63360;50.104;8.074;2023-02-01T01:53:28;7.60;;;3.17;;
74707;SDS011;63360;50.104;8.074;2023-02-01T01:56:00;7.28;;;3.33;;
74707;SDS011;63360;50.104;8.074;2023-02-01T01:58:27;8.23;;;3.08;;
74707;SDS011;63360;50.104;8.074;2023-02-01T02:00:58;8.18;;;3.08;;
74707;SDS011;63360;50.104;8.074;2023-02-01T02:09:06;6.25;;;2.55;;
74707;SDS011;63360;50.104;8.074;2023-02-01T02:11:33;9.52;;;3.05;;
74707;SDS011;63360;50.104;8.074;2023-02-01T02:13:59;8.60;;;2.60;;
74707;SDS011;63360;50.104;8.074;2023-02-01T02:16:33;7.47;;;2.75;;
74707;SDS011;63360;50.104;8.074;2023-02-01T02:22:17;8.38;;;2.40;;
74707;SDS011;63360;50.104;8.074;2023-02-01T02:36:36;5.85;;;1.85;;
74707;SDS011;63360;50.104;8.074;2023-02-01T02:39:08;5.38;;;1.90;;
74707;SDS011;63360;50.104;8.074;2023-02-01T02:47:56;4.83;;;1.73;;
74707;SDS011;63360;50.104;8.074;2023-02-01T02:50:44;5.90;;;1.90;;
74707;SDS011;63360;50.104;8.074;2023-02-01T02:53:56;4.55;;;1.65;;
74707;SDS011;63360;50.104;8.074;2023-02-01T02:56:47;5.40;;;2.00;;
74707;SDS011;63360;50.104;8.074;2023-02-01T02:59:34;4.38;;;1.65;;
74707;SDS011;63360;50.104;8.074;2023-02-01T03:02:20;5.77;;;1.70;;
74707;SDS011;63360;50.104;8.074;2023-02-01T03:05:06;4.80;;;1.50;;
74707;SDS011;63360;50.104;8.074;2023-02-01T03:16:12;5.53;;;1.60;;
74707;SDS011;63360;50.104;8.074;2023-02-01T03:21:41;5.35;;;1.83;;
74707;SDS011;63360;50.104;8.074;2023-02-01T03:24:12;6.82;;;1.75;;
74707;SDS011;63360;50.104;8.074;2023-02-01T03:26:48;6.03;;;1.90;;
74707;SDS011;63360;50.104;8.074;2023-02-01T03:29:21;5.07;;;1.87;;
74707;SDS011;63360;50.104;8.074;2023-02-01T03:31:53;5.43;;;1.90;;
74707;SDS011;63360;50.104;8.074;2023-02-01T03:34:20;10.10;;;1.92;;
74707;SDS011;63360;50.104;8.074;2023-02-01T03:37:03;6.07;;;1.85;;
74707;SDS011;63360;50.104;8.074;2023-02-01T03:42:30;7.70;;;2.33;;
74707;SDS011;63360;50.104;8.074;2023-02-01T03:45:10;5.50;;;1.85;;
74707;SDS011;63360;50.104;8.074;2023-02-01T03:47:47;9.80;;;2.30;;
74707;SDS011;63360;50.104;8.074;2023-02-01T03:50:21;8.93;;;2.45;;
74707;SDS011;63360;50.104;8.074;2023-02-01T03:55:21;5.40;;;1.90;;
74707;SDS011;63360;50.104;8.074;2023-02-01T03:58:00;6.32;;;2.13;;
74707;SDS011;63360;50.104;8.074;2023-02-01T04:00:39;7.30;;;2.22;;
74707;SDS011;63360;50.104;8.074;2023-02-01T04:03:06;8.32;;;2.17;;
74707;SDS011;63360;50.104;8.074;2023-02-01T04:05:33;8.70;;;2.20;;
74707;SDS011;63360;50.104;8.074;2023-02-01T04:08:00;8.00;;;2.53;;
74707;SDS011;63360;50.104;8.074;2023-02-01T04:10:27;7.55;;;2.90;;
74707;SDS011;63360;50.104;8.074;2023-02-01T04:12:53;9.48;;;2.40;;
74707;SDS011;63360;50.104;8.074;2023-02-01T04:15:20;8.10;;;2.30;;
74707;SDS011;63360;50.104;8.074;2023-02-01T04:17:46;10.10;;;2.53;;
74707;SDS011;63360;50.104;8.074;2023-02-01T04:20:12;12.00;;;2.23;;
74707;SDS011;63360;50.104;8.074;2023-02-01T04:22:39;10.95;;;2.60;;
74707;SDS011;63360;50.104;8.074;2023-02-01T04:25:05;9.68;;;2.55;;
74707;SDS011;63360;50.104;8.074;2023-02-01T04:27:34;9.82;;;2.30;;
74707;SDS011;63360;50.104;8.074;2023-02-01T04:30:01;9.13;;;2.47;;
74707;SDS011;63360;50.104;8.074;2023-02-01T04:32:28;9.87;;;2.40;;
74707;SDS011;63360;50.104;8.074;2023-02-01T04:34:55;8.70;;;2.60;;
74707;SDS011;63360;50.104;8.074;2023-02-01T04:37:21;8.80;;;3.10;;
74707;SDS011;63360;50.104;8.074;2023-02-01T04:39:48;9.02;;;2.55;;
74707;SDS011;63360;50.104;8.074;2023-02-01T04:42:14;12.15;;;2.80;;
74707;SDS011;63360;50.104;8.074;2023-02-01T04:44:40;9.50;;;2.70;;
74707;SDS011;63360;50.104;8.074;2023-02-01T04:47:08;11.70;;;3.13;;
74707;SDS011;63360;50.104;8.074;2023-02-01T04:49:34;9.52;;;3.08;;
74707;SDS011;63360;50.104;8.074;2023-02-01T04:52:00;12.48;;;2.58;;
74707;SDS011;63360;50.104;8.074;2023-02-01T04:54:27;13.18;;;2.83;;
74707;SDS011;63360;50.104;8.074;2023-02-01T04:56:53;13.00;;;3.77;;
74707;SDS011;63360;50.104;8.074;2023-02-01T04:59:20;11.80;;;2.97;;
74707;SDS011;63360;50.104;8.074;2023-02-01T05:01:46;12.38;;;2.35;;
74707;SDS011;63360;50.104;8.074;2023-02-01T05:04:14;13.95;;;2.70;;
74707;SDS011;63360;50.104;8.074;2023-02-01T05:06:40;13.15;;;2.47;;
74707;SDS011;63360;50.104;8.074;2023-02-01T05:09:07;12.67;;;2.67;;
74707;SDS011;63360;50.104;8.074;2023-02-01T05:11:33;10.13;;;2.30;;
74707;SDS011;63360;50.104;8.074;2023-02-01T05:14:18;9.77;;;2.28;;
74707;SDS011;63360;50.104;8.074;2023-02-01T05:16:44;10.27;;;2.10;;
74707;SDS011;63360;50.104;8.074;2023-02-01T05:19:11;10.95;;;2.50;;
74707;SDS011;63360;50.104;8.074;2023-02-01T05:21:37;14.57;;;2.57;;
74707;SDS011;63360;50.104;8.074;2023-02-01T05:24:04;11.52;;;2.47;;
74707;SDS011;63360;50.104;8.074;2023-02-01T05:26:42;13.75;;;3.05;;
74707;SDS011;63360;50.104;8.074;2023-02-01T05:29:09;13.23;;;2.90;;
74707;SDS011;63360;50.104;8.074;2023-02-01T05:31:36;10.85;;;2.40;;
74707;SDS011;63360;50.104;8.074;2023-02-01T05:34:03;8.83;;;2.80;;
74707;SDS011;63360;50.104;8.074;2023-02-01T05:36:30;11.10;;;2.70;;
74707;SDS011;63360;50.104;8.074;2023-02-01T05:38:57;17.40;;;2.70;;
74707;SDS011;63360;50.104;8.074;2023-02-01T05:41:23;11.68;;;2.78;;
74707;SDS011;63360;50.104;8.074;2023-02-01T05:43:50;10.40;;;2.80;;
74707;SDS011;63360;50.104;8.074;2023-02-01T05:46:17;8.70;;;2.60;;
74707;SDS011;63360;50.104;8.074;2023-02-01T05:48:43;10.93;;;2.53;;
74707;SDS011;63360;50.104;8.074;2023-02-01T05:51:10;12.77;;;2.80;;
74707;SDS011;63360;50.104;8.074;2023-02-01T05:53:38;15.65;;;2.85;;
74707;SDS011;63360;50.104;8.074;2023-02-01T05:56:04;12.40;;;3.15;;
74707;SDS011;63360;50.104;8.074;2023-02-01T05:58:32;12.77;;;2.93;;
74707;SDS011;63360;50.104;8.074;2023-02-01T06:00:59;15.57;;;2.97;;
74707;SDS011;63360;50.104;8.074;2023-02-01T06:03:26;11.30;;;2.97;;
74707;SDS011;63360;50.104;8.074;2023-02-01T06:05:53;15.32;;;2.95;;
74707;SDS011;63360;50.104;8.074;2023-02-01T06:08:19;10.35;;;3.35;;
74707;SDS011;63360;50.104;8.074;2023-02-01T06:10:46;11.27;;;3.40;;
74707;SDS011;63360;50.104;8.074;2023-02-01T06:13:12;13.07;;;3.00;;
74707;SDS011;63360;50.104;8.074;2023-02-01T06:15:38;10.15;;;2.80;;
74707;SDS011;63360;50.104;8.074;2023-02-01T06:18:07;14.77;;;3.03;;
74707;SDS011;63360;50.104;8.074;2023-02-01T06:20:34;11.38;;;3.30;;
74707;SDS011;63360;50.104;8.074;2023-02-01T06:23:00;16.37;;;3.00;;
74707;SDS011;63360;50.104;8.074;2023-02-01T06:25:26;12.60;;;2.78;;
74707;SDS011;63360;50.104;8.074;2023-02-01T06:27:53;9.75;;;2.67;;
74707;SDS011;63360;50.104;8.074;2023-02-01T06:30:19;13.80;;;3.42;;
74707;SDS011;63360;50.104;8.074;2023-02-01T06:32:49;11.63;;;3.05;;
74707;SDS011;63360;50.104;8.074;2023-02-01T06:35:19;12.23;;;2.73;;
74707;SDS011;63360;50.104;8.074;2023-02-01T06:37:46;14.55;;;3.25;;
74707;SDS011;63360;50.104;8.074;2023-02-01T06:40:12;12.45;;;3.33;;
74707;SDS011;63360;50.104;8.074;2023-02-01T06:42:39;11.32;;;2.78;;
74707;SDS011;63360;50.104;8.074;2023-02-01T06:45:05;8.68;;;2.38;;
74707;SDS011;63360;50.104;8.074;2023-02-01T06:47:33;10.43;;;2.00;;
74707;SDS011;63360;50.104;8.074;2023-02-01T06:49:59;10.85;;;2.42;;
74707;SDS011;63360;50.104;8.074;2023-02-01T06:52:26;8.98;;;1.90;;
74707;SDS011;63360;50.104;8.074;2023-02-01T06:54:52;13.13;;;2.47;;
74707;SDS011;63360;50.104;8.074;2023-02-01T06:57:18;9.10;;;2.13;;
74707;SDS011;63360;50.104;8.074;2023-02-01T06:59:45;9.50;;;2.50;;
74707;SDS011;63360;50.104;8.074;2023-02-01T07:02:12;12.40;;;2.10;;
74707;SDS011;63360;50.104;8.074;2023-02-01T07:04:39;12.43;;;2.20;;
74707;SDS011;63360;50.104;8.074;2023-02-01T07:07:05;9.13;;;1.80;;
74707;SDS011;63360;50.104;8.074;2023-02-01T07:09:31;11.48;;;2.05;;
74707;SDS011;63360;50.104;8.074;2023-02-01T07:11:58;14.70;;;3.10;;
74707;SDS011;63360;50.104;8.074;2023-02-01T07:14:24;10.23;;;2.60;;
74707;SDS011;63360;50.104;8.074;2023-02-01T07:16:51;11.90;;;2.50;;
74707;SDS011;63360;50.104;8.074;2023-02-01T07:19:17;11.00;;;2.10;;
74707;SDS011;63360;50.104;8.074;2023-02-01T07:21:43;9.30;;;2.30;;
74707;SDS011;63360;50.104;8.074;2023-02-01T07:24:10;9.60;;;2.13;;
74707;SDS011;63360;50.104;8.074;2023-02-01T07:26:36;9.88;;;2.30;;
74707;SDS011;63360;50.104;8.074;2023-02-01T07:29:03;11.13;;;1.98;;
74707;SDS011;63360;50.104;8.074;2023-02-01T07:31:29;10.60;;;1.80;;
74707;SDS011;63360;50.104;8.074;2023-02-01T07:33:55;12.02;;;2.03;;
74707;SDS011;63360;50.104;8.074;2023-02-01T07:36:23;13.67;;;2.40;;
74707;SDS011;63360;50.104;8.074;2023-02-01T07:38:50;13.85;;;2.25;;
74707;SDS011;63360;50.104;8.074;2023-02-01T07:41:21;12.10;;;2.30;;
74707;SDS011;63360;50.104;8.074;2023-02-01T07:43:48;11.25;;;2.05;;
74707;SDS011;63360;50.104;8.074;2023-02-01T07:46:16;8.38;;;2.38;;
74707;SDS011;63360;50.104;8.074;2023-02-01T07:48:43;7.93;;;2.20;;
74707;SDS011;63360;50.104;8.074;2023-02-01T07:51:10;8.43;;;1.90;;
74707;SDS011;63360;50.104;8.074;2023-02-01T07:53:38;14.55;;;2.15;;
74707;SDS011;63360;50.104;8.074;2023-02-01T07:56:09;12.20;;;2.47;;
74707;SDS011;63360;50.104;8.074;2023-02-01T07:58:40;12.45;;;2.20;;
74707;SDS011;63360;50.104;8.074;2023-02-01T08:01:40;12.50;;;2.00;;
74707;SDS011;63360;50.104;8.074;2023-02-01T08:04:01;10.93;;;2.28;;
74707;SDS011;63360;50.104;8.074;2023-02-01T08:06:30;12.35;;;1.90;;
74707;SDS011;63360;50.104;8.074;2023-02-01T08:08:58;15.25;;;2.22;;
74707;SDS011;63360;50.104;8.074;2023-02-01T08:11:24;10.95;;;2.00;;
74707;SDS011;63360;50.104;8.074;2023-02-01T08:13:51;6.17;;;1.70;;
74707;SDS011;63360;50.104;8.074;2023-02-01T08:16:19;10.88;;;2.10;;
74707;SDS011;63360;50.104;8.074;2023-02-01T08:18:47;10.13;;;2.10;;
74707;SDS011;63360;50.104;8.074;2023-02-01T08:21:14;9.65;;;1.90;;
74707;SDS011;63360;50.104;8.074;2023-02-01T08:23:49;11.35;;;2.00;;
74707;SDS011;63360;50.104;8.074;2023-02-01T08:26:23;8.60;;;1.80;;
74707;SDS011;63360;50.104;8.074;2023-02-01T08:28:52;10.68;;;2.00;;
74707;SDS011;63360;50.104;8.074;2023-02-01T08:31:20;11.32;;;2.30;;
74707;SDS011;63360;50.104;8.074;2023-02-01T08:33:50;11.82;;;2.00;;
74707;SDS011;63360;50.104;8.074;2023-02-01T08:36:18;12.60;;;2.22;;
74707;SDS011;63360;50.104;8.074;2023-02-01T08:38:44;12.40;;;1.80;;
74707;SDS011;63360;50.104;8.074;2023-02-01T08:41:12;10.55;;;1.88;;
74707;SDS011;63360;50.104;8.074;2023-02-01T08:43:40;7.43;;;1.80;;
74707;SDS011;63360;50.104;8.074;2023-02-01T08:46:07;9.73;;;1.92;;
74707;SDS011;63360;50.104;8.074;2023-02-01T08:48:35;7.68;;;1.83;;
74707;SDS011;63360;50.104;8.074;2023-02-01T08:51:03;8.83;;;2.20;;
74707;SDS011;63360;50.104;8.074;2023-02-01T08:53:31;7.07;;;1.63;;
74707;SDS011;63360;50.104;8.074;2023-02-01T08:55:58;9.00;;;1.85;;
74707;SDS011;63360;50.104;8.074;2023-02-01T08:58:24;6.75;;;1.60;;
74707;SDS011;63360;50.104;8.074;2023-02-01T09:00:51;6.38;;;1.58;;
74707;SDS011;63360;50.104;8.074;2023-02-01T09:03:18;6.17;;;1.70;;
74707;SDS011;63360;50.104;8.074;2023-02-01T09:05:44;7.75;;;1.52;;
74707;SDS011;63360;50.104;8.074;2023-02-01T09:08:15;10.18;;;1.90;;
74707;SDS011;63360;50.104;8.074;2023-02-01T09:10:42;9.63;;;1.70;;
74707;SDS011;63360;50.104;8.074;2023-02-01T09:13:08;8.23;;;1.85;;
74707;SDS011;63360;50.104;8.074;2023-02-01T09:15:36;5.70;;;1.77;;
74707;SDS011;63360;50.104;8.074;2023-02-01T09:18:03;8.60;;;1.75;;
74707;SDS011;63360;50.104;8.074;2023-02-01T09:20:29;9.68;;;1.92;;
74707;SDS011;63360;50.104;8.074;2023-02-01T09:22:56;8.32;;;1.60;;
74707;SDS011;63360;50.104;8.074;2023-02-01T09:25:23;9.23;;;1.73;;
74707;SDS011;63360;50.104;8.074;2023-02-01T09:27:50;8.53;;;2.07;;
74707;SDS011;63360;50.104;8.074;2023-02-01T09:30:16;7.07;;;1.23;;
74707;SDS011;63360;50.104;8.074;2023-02-01T09:32:43;11.48;;;1.95;;
74707;SDS011;63360;50.104;8.074;2023-02-01T09:35:09;8.55;;;1.73;;
74707;SDS011;63360;50.104;8.074;2023-02-01T09:37:35;14.02;;;2.17;;
74707;SDS011;63360;50.104;8.074;2023-02-01T09:40:03;9.33;;;1.60;;
74707;SDS011;63360;50.104;8.074;2023-02-01T09:42:41;9.25;;;1.80;;
74707;SDS011;63360;50.104;8.074;2023-02-01T09:48:27;7.85;;;1.63;;
74707;SDS011;63360;50.104;8.074;2023-02-01T09:50:57;7.45;;;1.83;;
74707;SDS011;63360;50.104;8.074;2023-02-01T09:53:35;10.33;;;3.37;;
74707;SDS011;63360;50.104;8.074;2023-02-01T09:56:07;6.50;;;1.23;;
74707;SDS011;63360;50.104;8.074;2023-02-01T09:58:52;10.63;;;1.50;;
74707;SDS011;63360;50.104;8.074;2023-02-01T10:01:27;8.00;;;1.88;;
74707;SDS011;63360;50.104;8.074;2023-02-01T10:03:57;7.72;;;1.63;;
74707;SDS011;63360;50.104;8.074;2023-02-01T10:06:39;9.90;;;1.90;;
74707;SDS011;63360;50.104;8.074;2023-02-01T10:12:16;10.27;;;1.40;;
74707;SDS011;63360;50.104;8.074;2023-02-01T10:20:51;7.67;;;1.50;;
74707;SDS011;63360;50.104;8.074;2023-02-01T10:26:19;9.85;;;1.35;;
74707;SDS011;63360;50.104;8.074;2023-02-01T10:28:57;11.68;;;1.30;;
74707;SDS011;63360;50.104;8.074;2023-02-01T10:31:31;11.15;;;1.73;;
74707;SDS011;63360;50.104;8.074;2023-02-01T10:34:06;12.73;;;1.43;;
74707;SDS011;63360;50.104;8.074;2023-02-01T10:36:42;10.38;;;1.42;;
74707;SDS011;63360;50.104;8.074;2023-02-01T10:39:16;10.45;;;1.50;;
74707;SDS011;63360;50.104;8.074;2023-02-01T10:41:43;7.70;;;1.50;;
74707;SDS011;63360;50.104;8.074;2023-02-01T10:44:14;9.50;;;1.63;;
74707;SDS011;63360;50.104;8.074;2023-02-01T10:46:46;10.13;;;1.57;;
74707;SDS011;63360;50.104;8.074;2023-02-01T10:49:24;8.10;;;1.60;;
74707;SDS011;63360;50.104;8.074;2023-02-01T10:51:58;9.00;;;1.58;;
74707;SDS011;63360;50.104;8.074;2023-02-01T10:54:34;9.52;;;1.52;;
74707;SDS011;63360;50.104;8.074;2023-02-01T10:57:10;10.68;;;1.77;;
74707;SDS011;63360;50.104;8.074;2023-02-01T10:59:46;10.20;;;1.80;;
74707;SDS011;63360;50.104;8.074;2023-02-01T11:02:15;11.48;;;2.33;;
74707;SDS011;63360;50.104;8.074;2023-02-01T11:04:43;6.85;;;1.55;;
74707;SDS011;63360;50.104;8.074;2023-02-01T11:09:49;7.70;;;1.50;;
74707;SDS011;63360;50.104;8.074;2023-02-01T11:12:36;8.67;;;1.50;;
74707;SDS011;63360;50.104;8.074;2023-02-01T11:15:19;10.68;;;1.67;;
74707;SDS011;63360;50.104;8.074;2023-02-01T11:17:49;8.57;;;1.73;;
74707;SDS011;63360;50.104;8.074;2023-02-01T11:22:57;9.57;;;1.67;;
74707;SDS011;63360;50.104;8.074;2023-02-01T11:25:24;5.53;;;1.37;;
74707;SDS011;63360;50.104;8.074;2023-02-01T11:27:53;7.97;;;1.15;;
74707;SDS011;63360;50.104;8.074;2023-02-01T11:30:37;7.80;;;1.90;;
74707;SDS011;63360;50.104;8.074;2023-02-01T11:33:07;8.88;;;1.85;;
74707;SDS011;63360;50.104;8.074;2023-02-01T11:35:39;7.38;;;1.60;;
74707;SDS011;63360;50.104;8.074;2023-02-01T11:41:12;8.05;;;1.50;;
74707;SDS011;63360;50.104;8.074;2023-02-01T11:43:53;8.18;;;1.13;;
74707;SDS011;63360;50.104;8.074;2023-02-01T11:46:27;9.52;;;1.30;;
74707;SDS011;63360;50.104;8.074;2023-02-01T11:48:57;10.85;;;1.38;;
74707;SDS011;63360;50.104;8.074;2023-02-01T11:51:42;5.67;;;1.27;;
74707;SDS011;63360;50.104;8.074;2023-02-01T11:54:21;5.57;;;1.20;;
74707;SDS011;63360;50.104;8.074;2023-02-01T11:57:03;9.05;;;1.27;;
74707;SDS011;63360;50.104;8.074;2023-02-01T11:59:46;10.20;;;2.05;;
74707;SDS011;63360;50.104;8.074;2023-02-01T12:13:47;9.93;;;1.75;;
74707;SDS011;63360;50.104;8.074;2023-02-01T12:21:53;12.60;;;1.75;;
74707;SDS011;63360;50.104;8.074;2023-02-01T12:35:09;8.45;;;1.35;;
74707;SDS011;63360;50.104;8.074;2023-02-01T12:37:48;8.77;;;1.38;;
74707;SDS011;63360;50.104;8.074;2023-02-01T12:45:53;9.50;;;2.03;;
74707;SDS011;63360;50.104;8.074;2023-02-01T12:51:13;8.65;;;1.52;;
74707;SDS011;63360;50.104;8.074;2023-02-01T12:53:46;9.57;;;1.27;;
74707;SDS011;63360;50.104;8.074;2023-02-01T12:56:22;8.77;;;1.25;;
74707;SDS011;63360;50.104;8.074;2023-02-01T12:58:57;8.37;;;1.30;;
74707;SDS011;63360;50.104;8.074;2023-02-01T13:01:39;7.00;;;1.10;;
74707;SDS011;63360;50.104;8.074;2023-02-01T13:04:20;11.15;;;1.35;;
74707;SDS011;63360;50.104;8.074;2023-02-01T13:07:05;8.18;;;1.58;;
74707;SDS011;63360;50.104;8.074;2023-02-01T13:09:44;10.60;;;1.30;;
74707;SDS011;63360;50.104;8.074;2023-02-01T13:12:17;8.27;;;1.47;;
74707;SDS011;63360;50.104;8.074;2023-02-01T13:15:03;7.88;;;1.00;;
74707;SDS011;63360;50.104;8.074;2023-02-01T13:17:37;9.25;;;1.48;;
74707;SDS011;63360;50.104;8.074;2023-02-01T13:20:16;7.80;;;1.13;;
74707;SDS011;63360;50.104;8.074;2023-02-01T13:22:54;6.38;;;1.33;;
74707;SDS011;63360;50.104;8.074;2023-02-01T13:39:56;5.83;;;1.10;;
74707;SDS011;63360;50.104;8.074;2023-02-01T13:42:49;6.20;;;0.98;;
74707;SDS011;63360;50.104;8.074;2023-02-01T13:45:23;7.00;;;1.30;;
74707;SDS011;63360;50.104;8.074;2023-02-01T13:47:54;10.80;;;1.33;;
74707;SDS011;63360;50.104;8.074;2023-02-01T13:55:41;7.10;;;1.13;;
74707;SDS011;63360;50.104;8.074;2023-02-01T13:58:20;9.88;;;1.42;;
74707;SDS011;63360;50.104;8.074;2023-02-01T14:03:58;4.60;;;0.77;;
74707;SDS011;63360;50.104;8.074;2023-02-01T14:11:41;8.27;;;0.90;;
74707;SDS011;63360;50.104;8.074;2023-02-01T14:19:21;6.57;;;0.77;;
74707;SDS011;63360;50.104;8.074;2023-02-01T14:24:25;9.30;;;1.02;;
74707;SDS011;63360;50.104;8.074;2023-02-01T14:27:00;6.57;;;1.10;;
74707;SDS011;63360;50.104;8.074;2023-02-01T14:29:43;6.55;;;1.17;;
74707;SDS011;63360;50.104;8.074;2023-02-01T14:32:21;5.50;;;0.73;;
74707;SDS011;63360;50.104;8.074;2023-02-01T14:34:52;11.80;;;1.23;;
74707;SDS011;63360;50.104;8.074;2023-02-01T14:39:50;8.40;;;0.95;;
74707;SDS011;63360;50.104;8.074;2023-02-01T14:50:44;4.78;;;1.13;;
74707;SDS011;63360;50.104;8.074;2023-02-01T14:53:17;8.73;;;0.90;;
74707;SDS011;63360;50.104;8.074;2023-02-01T15:06:32;4.95;;;0.88;;
74707;SDS011;63360;50.104;8.074;2023-02-01T15:09:11;10.05;;;1.58;;
74707;SDS011;63360;50.104;8.074;2023-02-01T15:15:12;6.80;;;0.95;;
74707;SDS011;63360;50.104;8.074;2023-02-01T15:17:49;7.10;;;0.90;;
74707;SDS011;63360;50.104;8.074;2023-02-01T15:20:24;6.32;;;0.85;;
74707;SDS011;63360;50.104;8.074;2023-02-01T15:22:53;5.57;;;0.80;;
74707;SDS011;63360;50.104;8.074;2023-02-01T15:25:21;5.17;;;0.70;;
74707;SDS011;63360;50.104;8.074;2023-02-01T15:27:51;7.68;;;0.90;;
74707;SDS011;63360;50.104;8.074;2023-02-01T15:30:19;8.07;;;0.90;;
74707;SDS011;63360;50.104;8.074;2023-02-01T15:33:04;6.78;;;0.80;;
74707;SDS011;63360;50.104;8.074;2023-02-01T15:35:42;6.82;;;0.80;;
74707;SDS011;63360;50.104;8.074;2023-02-01T15:38:20;5.03;;;0.70;;
74707;SDS011;63360;50.104;8.074;2023-02-01T15:41:04;5.32;;;0.90;;
74707;SDS011;63360;50.104;8.074;2023-02-01T15:43:34;7.18;;;0.68;;
74707;SDS011;63360;50.104;8.074;2023-02-01T15:46:09;9.63;;;0.70;;
74707;SDS011;63360;50.104;8.074;2023-02-01T15:48:43;5.35;;;0.73;;
74707;SDS011;63360;50.104;8.074;2023-02-01T15:51:16;7.97;;;0.77;;
74707;SDS011;63360;50.104;8.074;2023-02-01T15:53:46;7.90;;;0.90;;
74707;SDS011;63360;50.104;8.074;2023-02-01T15:56:20;4.63;;;0.93;;
74707;SDS011;63360;50.104;8.074;2023-02-01T15:58:50;5.85;;;0.80;;
74707;SDS011;63360;50.104;8.074;2023-02-01T16:01:20;8.13;;;0.88;;
74707;SDS011;63360;50.104;8.074;2023-02-01T16:03:46;7.37;;;1.07;;
74707;SDS011;63360;50.104;8.074;2023-02-01T16:09:21;4.22;;;0.90;;
74707;SDS011;63360;50.104;8.074;2023-02-01T16:11:46;5.20;;;0.80;;
74707;SDS011;63360;50.104;8.074;2023-02-01T16:14:13;4.97;;;0.80;;
74707;SDS011;63360;50.104;8.074;2023-02-01T16:16:39;6.43;;;0.90;;
74707;SDS011;63360;50.104;8.074;2023-02-01T16:19:06;6.97;;;1.20;;
74707;SDS011;63360;50.104;8.074;2023-02-01T16:21:32;5.75;;;0.90;;
74707;SDS011;63360;50.104;8.074;2023-02-01T16:23:59;6.03;;;0.70;;
74707;SDS011;63360;50.104;8.074;2023-02-01T16:26:30;4.72;;;0.80;;
74707;SDS011;63360;50.104;8.074;2023-02-01T16:28:58;5.10;;;0.80;;
74707;SDS011;63360;50.104;8.074;2023-02-01T16:31:26;8.95;;;0.90;;
74707;SDS011;63360;50.104;8.074;2023-02-01T16:33:55;6.03;;;1.05;;
74707;SDS011;63360;50.104;8.074;2023-02-01T16:36:22;6.53;;;0.80;;
74707;SDS011;63360;50.104;8.074;2023-02-01T16:38:50;6.70;;;0.90;;
74707;SDS011;63360;50.104;8.074;2023-02-01T16:41:19;5.73;;;0.90;;
74707;SDS011;63360;50.104;8.074;2023-02-01T16:43:51;9.55;;;1.15;;
74707;SDS011;63360;50.104;8.074;2023-02-01T16:46:20;8.27;;;0.90;;
74707;SDS011;63360;50.104;8.074;2023-02-01T16:48:54;6.13;;;0.93;;
74707;SDS011;63360;50.104;8.074;2023-02-01T16:51:23;6.65;;;1.00;;
74707;SDS011;63360;50.104;8.074;2023-02-01T16:53:51;9.30;;;0.90;;
74707;SDS011;63360;50.104;8.074;2023-02-01T16:56:28;5.88;;;0.90;;
74707;SDS011;63360;50.104;8.074;2023-02-01T16:58:56;6.78;;;0.90;;
74707;SDS011;63360;50.104;8.074;2023-02-01T17:01:23;6.88;;;1.00;;
74707;SDS011;63360;50.104;8.074;2023-02-01T17:03:50;6.07;;;0.73;;
74707;SDS011;63360;50.104;8.074;2023-02-01T17:06:17;6.47;;;1.00;;
74707;SDS011;63360;50.104;8.074;2023-02-01T17:08:47;12.45;;;1.42;;
74707;SDS011;63360;50.104;8.074;2023-02-01T17:11:20;6.70;;;1.00;;
74707;SDS011;63360;50.104;8.074;2023-02-01T17:13:47;6.78;;;0.93;;
74707;SDS011;63360;50.104;8.074;2023-02-01T17:16:30;6.95;;;1.13;;
74707;SDS011;63360;50.104;8.074;2023-02-01T17:19:31;7.40;;;1.63;;
74707;SDS011;63360;50.104;8.074;2023-02-01T17:21:52;7.05;;;1.00;;
74707;SDS011;63360;50.104;8.074;2023-02-01T17:24:23;9.05;;;0.90;;
74707;SDS011;63360;50.104;8.074;2023-02-01T17:26:58;5.00;;;1.33;;
74707;SDS011;63360;50.104;8.074;2023-02-01T17:29:25;4.80;;;1.10;;
74707;SDS011;63360;50.104;8.074;2023-02-01T17:31:52;7.70;;;0.97;;
74707;SDS011;63360;50.104;8.074;2023-02-01T17:34:20;9.48;;;1.10;;
74707;SDS011;63360;50.104;8.074;2023-02-01T17:36:47;9.80;;;1.15;;
74707;SDS011;63360;50.104;8.074;2023-02-01T17:39:14;7.25;;;0.90;;
74707;SDS011;63360;50.104;8.074;2023-02-01T17:42:02;11.10;;;1.20;;
74707;SDS011;63360;50.104;8.074;2023-02-01T17:44:30;5.47;;;0.80;;
74707;SDS011;63360;50.104;8.074;2023-02-01T17:46:57;5.50;;;1.00;;
74707;SDS011;63360;50.104;8.074;2023-02-01T17:49:25;8.20;;;1.10;;
74707;SDS011;63360;50.104;8.074;2023-02-01T17:51:54;8.55;;;1.10;;
74707;SDS011;63360;50.104;8.074;2023-02-01T17:54:22;7.93;;;1.15;;
74707;SDS011;63360;50.104;8.074;2023-02-01T17:56:48;7.80;;;1.13;;
74707;SDS011;63360;50.104;8.074;2023-02-01T17:59:15;6.25;;;1.10;;